createdAt,value
2022-08-07T00:00:03.024Z,15.9
2022-08-07T00:05:00.255Z,15.9
2022-08-07T00:10:25.583Z,15.8
2022-08-07T00:15:00.217Z,15.7
2022-08-07T00:20:03.386Z,15.6
2022-08-07T00:25:00.163Z,15.6
2022-08-07T00:30:00.187Z,15.5
2022-08-07T00:35:00.182Z,15.5
2022-08-07T00:40:00.372Z,15.4
2022-08-07T00:45:00.167Z,15.4
2022-08-07T00:50:19.536Z,15.3
2022-08-07T00:55:00.164Z,15.3
2022-08-07T01:00:00.229Z,15.3
2022-08-07T01:05:00.194Z,15.4
2022-08-07T01:10:06.945Z,15.3
2022-08-07T01:15:01.456Z,15.2
2022-08-07T01:20:00.193Z,15.3
2022-08-07T01:25:00.244Z,15.3
2022-08-07T01:30:00.629Z,15.4
2022-08-07T01:35:00.288Z,15.3
2022-08-07T01:40:00.302Z,15.4
2022-08-07T01:45:00.176Z,15.3
2022-08-07T01:50:00.610Z,15.3
2022-08-07T01:55:00.166Z,15.2
2022-08-07T02:00:00.177Z,15.2
2022-08-07T02:05:00.483Z,15.2
2022-08-07T02:10:00.562Z,15.2
2022-08-07T02:15:00.850Z,15.2
2022-08-07T02:20:04.109Z,15.3
2022-08-07T02:25:00.172Z,15.4
2022-08-07T02:30:00.170Z,15.4
2022-08-07T02:35:00.877Z,15.5
2022-08-07T02:40:11.746Z,15.6
2022-08-07T02:45:00.159Z,15.5
2022-08-07T02:50:00.533Z,15.6
2022-08-07T02:55:00.178Z,15.5
2022-08-07T03:00:01.361Z,15.5
2022-08-07T03:05:00.171Z,15.6
2022-08-07T03:10:00.184Z,15.6
2022-08-07T03:15:02.472Z,15.7
2022-08-07T03:20:00.183Z,15.7
2022-08-07T03:25:00.359Z,15.7
2022-08-07T03:30:00.177Z,15.7
2022-08-07T03:35:16.874Z,15.7
2022-08-07T03:40:14.859Z,15.6
2022-08-07T03:45:00.165Z,15.6
2022-08-07T03:50:00.184Z,15.5
2022-08-07T03:55:07.284Z,15.5
2022-08-07T04:00:02.823Z,15.4
2022-08-07T04:05:00.183Z,15.4
2022-08-07T04:10:02.164Z,15.3
2022-08-07T04:15:00.389Z,15.2
2022-08-07T04:20:00.171Z,15.2
2022-08-07T04:25:01.097Z,15.2
2022-08-07T04:30:01.990Z,15.1
2022-08-07T04:35:00.165Z,15.1
2022-08-07T04:40:00.349Z,15.1
2022-08-07T04:45:03.247Z,15.1
2022-08-07T04:50:03.997Z,15.1
2022-08-07T04:55:00.263Z,15.2
2022-08-07T05:00:13.113Z,15.3
2022-08-07T05:05:00.281Z,15.4
2022-08-07T05:10:00.703Z,15.4
2022-08-07T05:15:04.237Z,15.4
2022-08-07T05:20:00.207Z,15.4
2022-08-07T05:25:00.542Z,15.4
2022-08-07T05:30:00.180Z,15.4
2022-08-07T05:35:00.177Z,15.4
2022-08-07T05:40:14.398Z,15.6
2022-08-07T05:45:14.081Z,15.6
2022-08-07T05:50:00.179Z,15.7
2022-08-07T05:55:10.334Z,15.7
2022-08-07T06:00:00.281Z,15.8
2022-08-07T06:05:00.174Z,15.8
2022-08-07T06:10:05.718Z,15.9
2022-08-07T06:15:05.246Z,15.9
2022-08-07T06:20:04.411Z,16.1
2022-08-07T06:25:01.531Z,16.1
2022-08-07T06:30:00.181Z,16.1
2022-08-07T06:35:00.180Z,16.2
2022-08-07T06:40:17.162Z,16.4
2022-08-07T06:45:00.168Z,16.5
2022-08-07T06:50:00.171Z,16.7
2022-08-07T06:55:33.475Z,16.8
2022-08-07T07:00:11.356Z,16.9
2022-08-07T07:05:00.170Z,17.1
2022-08-07T07:10:00.187Z,17.4
2022-08-07T07:15:00.174Z,17.5
2022-08-07T07:20:00.184Z,17.7
2022-08-07T07:25:14.159Z,17.7
2022-08-07T07:30:09.939Z,17.7
2022-08-07T07:35:00.195Z,17.8
2022-08-07T07:40:00.176Z,17.8
2022-08-07T07:45:00.170Z,17.9
2022-08-07T07:50:34.645Z,18.1
2022-08-07T07:55:00.163Z,18.2
2022-08-07T08:00:00.178Z,18.4
2022-08-07T08:05:00.175Z,18.6
2022-08-07T08:10:05.359Z,18.8
2022-08-07T08:15:00.163Z,18.9
2022-08-07T08:20:17.367Z,18.9
2022-08-07T08:25:18.294Z,18.9
2022-08-07T08:30:02.815Z,18.9
2022-08-07T08:35:00.177Z,19.1
2022-08-07T08:40:00.366Z,19.7
2022-08-07T08:45:00.207Z,20.1
2022-08-07T08:50:04.718Z,20.2
2022-08-07T08:55:01.214Z,20.4
2022-08-07T09:00:00.289Z,20.7
2022-08-07T09:05:00.164Z,21
2022-08-07T09:10:03.310Z,21.3
2022-08-07T09:15:00.162Z,21.4
2022-08-07T09:20:00.199Z,21.8
2022-08-07T09:25:12.037Z,22
2022-08-07T09:30:04.955Z,22.2
2022-08-07T09:35:04.665Z,22.4
2022-08-07T09:40:00.326Z,22.4
2022-08-07T09:47:49.423Z,22.5
2022-08-07T09:50:19.277Z,22.8
2022-08-07T09:55:00.179Z,23.1
2022-08-07T10:00:01.540Z,23.1
2022-08-07T10:05:00.452Z,23.3
2022-08-07T10:10:02.869Z,23.4
2022-08-07T10:15:00.322Z,23.4
2022-08-07T10:20:00.262Z,23.2
2022-08-07T10:25:00.280Z,23.5
2022-08-07T10:30:00.186Z,23.6
2022-08-07T10:35:00.220Z,23.3
2022-08-07T10:40:05.166Z,23.2
2022-08-07T10:45:00.169Z,23.5
2022-08-07T10:50:00.183Z,23.5
2022-08-07T10:55:01.622Z,23.2
2022-08-07T11:00:00.162Z,23.6
2022-08-07T11:05:01.665Z,23.8
2022-08-07T11:10:08.576Z,24.1
2022-08-07T11:15:01.069Z,24.1
2022-08-07T11:20:00.174Z,24.6
2022-08-07T11:25:00.181Z,25.1
2022-08-07T11:30:17.863Z,24.9
2022-08-07T11:35:00.174Z,25.2
2022-08-07T11:40:03.402Z,24.9
2022-08-07T11:45:00.171Z,25
2022-08-07T11:50:30.486Z,24.9
2022-08-07T11:55:00.161Z,25.1
2022-08-07T12:00:11.220Z,25.2
2022-08-07T12:05:00.174Z,25.4
2022-08-07T12:10:02.139Z,25.4
2022-08-07T12:15:01.629Z,25.2
2022-08-07T12:20:06.362Z,25.2
2022-08-07T12:25:02.240Z,25.1
2022-08-07T12:30:00.178Z,25.1
2022-08-07T12:35:00.873Z,25.3
2022-08-07T12:40:00.232Z,25.4
2022-08-07T12:45:00.163Z,25.4
2022-08-07T12:50:05.151Z,25.9
2022-08-07T12:55:05.632Z,25.7
2022-08-07T13:00:00.180Z,26.1
2022-08-07T13:05:02.270Z,26.2
2022-08-07T13:10:19.372Z,26
2022-08-07T13:15:00.186Z,26.1
2022-08-07T13:20:00.173Z,26.2
2022-08-07T13:25:00.384Z,26.2
2022-08-07T13:30:00.177Z,26.5
2022-08-07T13:35:00.180Z,26.4
2022-08-07T13:40:36.404Z,26
2022-08-07T13:45:20.682Z,26.2
2022-08-07T13:50:33.870Z,26.1
2022-08-07T13:55:00.607Z,26.2
2022-08-07T14:00:00.297Z,26.2
2022-08-07T14:05:00.257Z,26.2
2022-08-07T14:10:02.634Z,26.3
2022-08-07T14:15:00.177Z,26.1
2022-08-07T14:20:42.160Z,26.2
2022-08-07T14:25:00.172Z,26.3
2022-08-07T14:30:09.844Z,26
2022-08-07T14:35:00.168Z,25.8
2022-08-07T14:40:15.654Z,25.9
2022-08-07T14:45:00.175Z,26.2
2022-08-07T14:50:00.308Z,27.8
2022-08-07T14:55:00.177Z,29.9
2022-08-07T15:05:01.674Z,28.5
2022-08-07T15:10:02.016Z,27.8
2022-08-07T15:15:00.174Z,27.3
2022-08-07T15:20:32.981Z,27.1
2022-08-07T15:25:13.686Z,27.2
2022-08-07T15:30:10.913Z,27.1
2022-08-07T15:35:00.183Z,26.9
2022-08-07T15:40:00.265Z,26.6
2022-08-07T15:45:00.204Z,26.4
2022-08-07T15:50:03.910Z,26.8
2022-08-07T15:55:02.456Z,26.9
2022-08-07T16:00:04.315Z,27.2
2022-08-07T16:05:00.204Z,26.7
2022-08-07T16:10:00.167Z,26.4
2022-08-07T16:15:00.225Z,26.2
2022-08-07T16:20:00.350Z,25.9
2022-08-07T16:25:00.283Z,26.1
2022-08-07T16:30:11.140Z,25.9
2022-08-07T16:35:00.226Z,25.8
2022-08-07T16:40:00.298Z,25.9
2022-08-07T16:45:14.940Z,25.9
2022-08-07T16:50:20.314Z,26.1
2022-08-07T16:55:00.189Z,26.6
2022-08-07T17:00:00.162Z,28.9
2022-08-07T17:05:00.190Z,31.1
2022-08-07T17:10:06.125Z,29.8
2022-08-07T17:15:00.162Z,28.2
2022-08-07T17:20:02.432Z,27.4
2022-08-07T17:25:00.201Z,26.8
2022-08-07T17:30:14.722Z,26.3
2022-08-07T17:35:49.720Z,25.7
2022-08-07T17:40:07.967Z,25.4
2022-08-07T17:45:00.182Z,25.3
2022-08-07T17:50:00.162Z,24.9
2022-08-07T17:55:00.184Z,24.5
2022-08-07T18:00:00.166Z,24.2
2022-08-07T18:05:00.185Z,23.8
2022-08-07T18:10:05.578Z,23.5
2022-08-07T18:15:00.164Z,23.2
2022-08-07T18:21:11.509Z,23
2022-08-07T18:25:00.165Z,22.8
2022-08-07T18:30:05.703Z,22.4
2022-08-07T18:35:01.651Z,22.2
2022-08-07T18:40:06.483Z,21.9
2022-08-07T18:45:44.319Z,21.7
2022-08-07T18:50:31.819Z,21.3
2022-08-07T18:55:08.423Z,21
2022-08-07T19:00:00.542Z,20.6
2022-08-07T19:05:15.121Z,20.2
2022-08-07T19:10:00.194Z,19.8
2022-08-07T19:15:00.590Z,19.3
2022-08-07T19:20:00.165Z,19
2022-08-07T19:25:06.274Z,18.8
2022-08-07T19:31:03.118Z,18.6
2022-08-07T19:35:00.183Z,18.3
2022-08-07T19:40:01.996Z,18.2
2022-08-07T19:45:00.714Z,18.1
2022-08-07T19:50:03.071Z,17.9
2022-08-07T19:55:00.171Z,17.9
2022-08-07T20:00:00.188Z,17.8
2022-08-07T20:05:00.380Z,17.6
2022-08-07T20:10:35.058Z,17.4
2022-08-07T20:15:00.171Z,17.3
2022-08-07T20:20:00.632Z,17.2
2022-08-07T20:25:00.205Z,17
2022-08-07T20:30:00.525Z,16.8
2022-08-07T20:35:00.166Z,16.7
2022-08-07T20:40:03.973Z,16.6
2022-08-07T20:45:00.206Z,16.5
2022-08-07T20:50:02.000Z,16.4
2022-08-07T20:55:00.340Z,16.3
2022-08-07T21:00:07.544Z,16.2
2022-08-07T21:05:00.281Z,16.2
2022-08-07T21:10:00.860Z,16.2
2022-08-07T21:15:00.900Z,16.1
2022-08-07T21:20:04.594Z,16.1
2022-08-07T21:25:00.163Z,16
2022-08-07T21:30:00.180Z,16
2022-08-07T21:35:00.164Z,15.9
2022-08-07T21:40:00.234Z,15.8
2022-08-07T21:45:00.186Z,15.8
2022-08-07T21:50:02.852Z,15.6
2022-08-07T21:55:00.180Z,15.4
2022-08-07T22:00:04.443Z,15.4
2022-08-07T22:05:00.181Z,15.3
2022-08-07T22:10:00.174Z,15.3
2022-08-07T22:15:00.596Z,15.2
2022-08-07T22:20:00.183Z,15.2
2022-08-07T22:25:00.164Z,15.2
2022-08-07T22:30:00.166Z,15.2
2022-08-07T22:35:00.181Z,15.1
2022-08-07T22:40:00.299Z,15.1
2022-08-07T22:45:00.178Z,15
2022-08-07T22:50:00.161Z,14.9
2022-08-07T22:55:00.177Z,14.9
2022-08-07T23:00:00.186Z,14.9
2022-08-07T23:06:10.293Z,14.9
2022-08-07T23:10:06.296Z,14.8
2022-08-07T23:15:00.171Z,14.8
2022-08-07T23:20:03.046Z,14.7
2022-08-07T23:25:00.179Z,14.6
2022-08-07T23:30:37.237Z,14.6
2022-08-07T23:35:01.080Z,14.6
2022-08-07T23:40:00.263Z,14.6
2022-08-07T23:45:00.178Z,14.5
2022-08-07T23:50:00.170Z,14.5
2022-08-07T23:55:00.186Z,14.5
